Time;durP1;ratioP1;P1;durP2;ratioP2;P2;SDS_P1;SDS_P2;PMS_P1;PMS_P2;Temp;Humidity;BMP_temperature;BMP_pressure;BME280_temperature;BME280_humidity;BME280_pressure;Samples;Min_cycle;Max_cycle;Signal;HPM_P1;HPM_P2
2021/05/28 00:00:34;;;;;;;30.30;17.30;;;10.10;99.90;;;;;;4941751;29;20190;-76
2021/05/28 00:03:00;;;;;;;26.90;15.90;;;10.20;99.90;;;;;;4941327;29;20188;-77
2021/05/28 00:05:27;;;;;;;27.80;17.50;;;10.10;99.90;;;;;;4937415;29;20610;-77
2021/05/28 00:07:52;;;;;;;23.05;16.40;;;10.00;99.90;;;;;;4938786;29;20299;-77
2021/05/28 00:10:18;;;;;;;28.60;16.63;;;10.00;99.90;;;;;;4938659;29;20261;-78
2021/05/28 00:12:44;;;;;;;21.63;15.50;;;10.00;99.90;;;;;;4952985;29;20181;-78
2021/05/28 00:15:11;;;;;;;26.50;15.83;;;10.10;99.90;;;;;;4938450;29;20671;-77
2021/05/28 00:17:37;;;;;;;21.35;14.68;;;10.00;99.90;;;;;;4938586;29;20189;-78
2021/05/28 00:20:06;;;;;;;24.48;16.17;;;10.00;99.90;;;;;;4938523;29;20196;-77
2021/05/28 00:22:31;;;;;;;22.25;14.75;;;10.00;99.90;;;;;;4938502;29;20541;-78
2021/05/28 00:24:57;;;;;;;25.67;14.90;;;10.10;99.90;;;;;;4938247;29;20201;-78
2021/05/28 00:27:23;;;;;;;23.83;14.17;;;10.10;99.90;;;;;;4938177;29;20206;-78
2021/05/28 00:29:50;;;;;;;18.65;14.50;;;10.10;99.90;;;;;;4938381;29;20174;-77
2021/05/28 00:32:16;;;;;;;24.20;14.40;;;10.10;99.90;;;;;;4938326;29;20681;-78
2021/05/28 00:34:41;;;;;;;19.98;14.80;;;10.20;99.90;;;;;;4937837;29;20205;-77
2021/05/28 00:37:07;;;;;;;29.00;15.10;;;10.10;99.90;;;;;;4938059;29;20185;-77
2021/05/28 00:39:33;;;;;;;21.53;14.60;;;10.00;99.90;;;;;;4936647;29;20276;-77
2021/05/28 00:41:58;;;;;;;22.43;13.80;;;9.80;99.90;;;;;;4938440;29;20236;-77
2021/05/28 00:44:28;;;;;;;29.23;14.57;;;9.80;99.90;;;;;;4920638;29;20213;-77
2021/05/28 00:46:55;;;;;;;23.23;14.48;;;9.70;99.90;;;;;;4937866;29;20204;-77
2021/05/28 00:49:20;;;;;;;21.35;13.95;;;9.70;99.90;;;;;;4936630;29;20185;-78
2021/05/28 00:51:46;;;;;;;19.03;13.30;;;9.60;99.90;;;;;;4936571;29;20249;-77
2021/05/28 00:54:12;;;;;;;17.33;13.33;;;9.60;99.90;;;;;;4937503;29;20240;-76
2021/05/28 00:56:39;;;;;;;20.50;13.57;;;9.60;99.90;;;;;;4937812;29;20186;-77
2021/05/28 00:59:06;;;;;;;20.23;13.85;;;9.80;99.90;;;;;;4937933;29;20177;-77
2021/05/28 01:01:33;;;;;;;20.85;13.02;;;9.80;99.90;;;;;;4937800;29;20181;-78
2021/05/28 01:03:59;;;;;;;22.33;12.20;;;9.90;99.90;;;;;;4935846;29;20213;-77
2021/05/28 01:06:25;;;;;;;22.53;13.10;;;9.90;99.90;;;;;;4937688;29;20554;-78
2021/05/28 01:08:51;;;;;;;25.58;13.10;;;9.90;99.90;;;;;;4937657;29;20197;-77
2021/05/28 01:11:17;;;;;;;18.93;12.83;;;10.00;99.90;;;;;;4937599;29;20181;-77
2021/05/28 01:13:42;;;;;;;23.83;14.80;;;10.00;99.90;;;;;;4937056;29;20201;-78
2021/05/28 01:16:08;;;;;;;21.83;13.97;;;10.00;99.90;;;;;;4937065;29;20430;-77
2021/05/28 01:18:34;;;;;;;20.47;13.17;;;10.00;99.90;;;;;;4937651;29;20181;-77
2021/05/28 01:21:00;;;;;;;17.87;15.00;;;9.90;99.90;;;;;;4937451;29;20185;-78
2021/05/28 01:23:26;;;;;;;20.57;13.40;;;9.80;99.90;;;;;;4936964;29;20197;-77
2021/05/28 01:25:52;;;;;;;19.17;13.52;;;9.80;99.90;;;;;;4937163;29;20524;-77
2021/05/28 01:28:18;;;;;;;19.63;14.90;;;9.70;99.90;;;;;;4937313;29;20189;-77
2021/05/28 01:30:43;;;;;;;20.40;15.27;;;9.80;99.90;;;;;;4937130;29;20421;-78
2021/05/28 01:33:10;;;;;;;22.80;16.13;;;9.70;99.90;;;;;;4936877;29;20268;-77
2021/05/28 01:35:36;;;;;;;19.48;14.48;;;9.70;99.90;;;;;;4935853;29;20181;-76
2021/05/28 01:38:04;;;;;;;22.30;14.00;;;9.70;99.90;;;;;;4937095;29;20193;-77
2021/05/28 01:40:31;;;;;;;26.00;13.57;;;9.70;99.90;;;;;;4937008;29;20269;-77
2021/05/28 01:42:56;;;;;;;26.25;12.98;;;9.60;99.90;;;;;;4935462;29;20189;-77
2021/05/28 01:45:22;;;;;;;23.60;13.77;;;9.70;99.90;;;;;;4936948;29;20189;-77
2021/05/28 01:47:48;;;;;;;19.13;13.10;;;9.60;99.90;;;;;;4936801;29;20206;-76
2021/05/28 01:50:15;;;;;;;19.13;12.27;;;9.60;99.90;;;;;;4935559;29;20272;-77
2021/05/28 01:52:41;;;;;;;22.20;12.93;;;9.50;99.90;;;;;;4936699;29;20182;-76
2021/05/28 01:55:10;;;;;;;19.30;11.27;;;9.60;99.90;;;;;;4936466;29;20193;-77
2021/05/28 01:57:36;;;;;;;17.83;11.88;;;9.70;99.90;;;;;;4936668;29;20555;-77
2021/05/28 02:00:06;;;;;;;24.38;10.85;;;9.70;99.90;;;;;;4936657;29;20188;-77
2021/05/28 02:02:31;;;;;;;20.23;10.68;;;9.70;99.90;;;;;;4936559;29;20177;-78
2021/05/28 02:04:57;;;;;;;16.03;12.10;;;9.60;99.90;;;;;;4935075;29;20227;-77
2021/05/28 02:07:23;;;;;;;18.97;11.30;;;9.50;99.90;;;;;;4936542;29;20198;-77
2021/05/28 02:09:48;;;;;;;13.90;10.73;;;9.40;99.90;;;;;;4936711;29;20702;-77
2021/05/28 02:12:14;;;;;;;23.47;12.13;;;9.50;99.90;;;;;;4935234;29;20178;-77
2021/05/28 02:14:40;;;;;;;17.53;10.00;;;9.60;99.90;;;;;;4936036;29;20666;-77
2021/05/28 02:17:06;;;;;;;14.87;10.03;;;9.60;99.90;;;;;;4936431;29;20174;-77
2021/05/28 02:19:32;;;;;;;16.02;10.77;;;9.60;99.90;;;;;;4936496;29;20207;-76
2021/05/28 02:21:57;;;;;;;20.60;11.97;;;9.60;99.90;;;;;;4936356;29;20729;-77
2021/05/28 02:24:23;;;;;;;15.30;12.63;;;9.60;99.90;;;;;;4935882;29;20202;-77
2021/05/28 02:26:50;;;;;;;17.53;11.93;;;9.70;99.90;;;;;;4935760;29;20209;-78
2021/05/28 02:29:16;;;;;;;17.33;11.50;;;9.60;99.90;;;;;;4936157;29;20642;-78
2021/05/28 02:31:42;;;;;;;24.92;12.07;;;9.50;99.90;;;;;;4936361;29;20380;-77
2021/05/28 02:34:09;;;;;;;17.73;11.93;;;9.50;99.90;;;;;;4935854;29;20194;-77
2021/05/28 02:36:35;;;;;;;20.63;11.65;;;9.50;99.90;;;;;;4935035;29;20592;-77
2021/05/28 02:39:00;;;;;;;20.93;11.00;;;9.40;99.90;;;;;;4936107;29;20237;-77
2021/05/28 02:41:26;;;;;;;20.53;11.80;;;9.30;99.90;;;;;;4936182;29;20432;-76
2021/05/28 02:43:52;;;;;;;17.13;10.10;;;9.40;99.90;;;;;;4935807;29;20201;-77
2021/05/28 02:46:18;;;;;;;18.60;11.00;;;9.40;99.90;;;;;;4936052;29;20201;-77
2021/05/28 02:48:44;;;;;;;14.60;10.40;;;9.40;99.90;;;;;;4936000;29;20177;-77
2021/05/28 02:51:09;;;;;;;22.02;11.18;;;9.30;99.90;;;;;;4936156;29;20429;-77
2021/05/28 02:53:35;;;;;;;15.67;10.10;;;9.30;99.90;;;;;;4934450;29;20197;-77
2021/05/28 02:56:05;;;;;;;18.57;9.90;;;9.20;99.90;;;;;;4936245;29;20240;-77
2021/05/28 02:58:31;;;;;;;17.02;9.80;;;9.10;99.90;;;;;;4934667;29;20176;-77
2021/05/28 03:00:57;;;;;;;17.33;10.55;;;9.10;99.90;;;;;;4934777;29;20213;-77
2021/05/28 03:03:23;;;;;;;15.87;10.17;;;9.00;99.90;;;;;;4935453;29;20689;-77
2021/05/28 03:05:50;;;;;;;19.87;10.10;;;9.10;99.90;;;;;;4935690;29;20203;-77
2021/05/28 03:08:17;;;;;;;11.75;10.00;;;9.00;99.90;;;;;;4934612;29;20520;-77
2021/05/28 03:10:42;;;;;;;17.38;10.80;;;9.00;99.90;;;;;;4935677;29;20252;-76
2021/05/28 03:13:08;;;;;;;20.20;11.40;;;9.00;99.90;;;;;;4935452;29;20201;-77
2021/05/28 03:15:34;;;;;;;21.80;12.10;;;9.00;99.90;;;;;;4935622;29;20911;-76
2021/05/28 03:17:59;;;;;;;22.57;11.77;;;8.80;99.90;;;;;;4935685;29;20943;-77
2021/05/28 03:20:33;;;;;;;16.90;11.30;;;8.70;99.90;;;;;;4934442;29;20268;-77
2021/05/28 03:22:58;;;;;;;14.13;10.50;;;8.70;99.90;;;;;;4919398;29;20554;-77
2021/05/28 03:25:24;;;;;;;18.40;11.80;;;8.70;99.90;;;;;;4934477;29;20214;-77
2021/05/28 03:27:50;;;;;;;18.20;11.13;;;8.70;99.90;;;;;;4935711;29;20197;-76
2021/05/28 03:30:17;;;;;;;16.80;12.40;;;8.70;99.90;;;;;;4935628;29;20189;-77
2021/05/28 03:32:43;;;;;;;12.88;11.15;;;8.70;99.90;;;;;;4935379;29;20185;-78
2021/05/28 03:35:08;;;;;;;13.40;10.67;;;8.70;99.90;;;;;;4935452;29;20763;-77
2021/05/28 03:37:34;;;;;;;20.13;11.70;;;8.70;99.90;;;;;;4934346;29;20423;-77
2021/05/28 03:40:01;;;;;;;23.30;11.53;;;8.60;99.90;;;;;;4938655;29;20823;-77
2021/05/28 03:42:26;;;;;;;14.45;10.95;;;8.60;99.90;;;;;;4937831;29;20950;-77
2021/05/28 03:44:52;;;;;;;17.93;11.53;;;8.70;99.90;;;;;;4938766;29;20243;-77
2021/05/28 03:47:18;;;;;;;19.93;10.37;;;8.60;99.90;;;;;;4937803;29;20296;-77
2021/05/28 03:49:45;;;;;;;15.93;11.85;;;8.60;99.90;;;;;;4939080;29;20174;-77
2021/05/28 03:52:11;;;;;;;20.80;11.38;;;8.60;99.90;;;;;;4939048;29;20635;-76
2021/05/28 03:54:37;;;;;;;17.45;10.77;;;8.60;99.90;;;;;;4938588;29;20208;-77
2021/05/28 03:57:03;;;;;;;15.40;10.70;;;8.60;99.90;;;;;;4938880;29;20174;-77
2021/05/28 03:59:29;;;;;;;18.17;10.57;;;8.60;99.90;;;;;;4938959;29;20210;-77
2021/05/28 04:01:54;;;;;;;17.10;10.60;;;8.60;99.90;;;;;;4937565;29;20643;-77
2021/05/28 04:04:20;;;;;;;15.60;10.57;;;8.50;99.90;;;;;;4937208;29;20210;-76
2021/05/28 04:06:46;;;;;;;17.10;10.70;;;8.40;99.90;;;;;;4937368;29;20689;-77
2021/05/28 04:09:11;;;;;;;25.80;12.07;;;8.30;99.90;;;;;;4938612;29;20182;-77
2021/05/28 04:11:37;;;;;;;15.00;10.10;;;8.30;99.90;;;;;;4938940;29;20178;-77
2021/05/28 04:14:03;;;;;;;14.70;11.03;;;8.30;99.90;;;;;;4938391;29;20272;-77
2021/05/28 04:16:29;;;;;;;17.80;10.57;;;8.30;99.90;;;;;;4938546;29;20182;-77
2021/05/28 04:18:54;;;;;;;16.73;10.33;;;8.30;99.90;;;;;;4938500;29;20774;-77
2021/05/28 04:21:20;;;;;;;19.53;11.00;;;8.20;99.90;;;;;;4937244;29;20197;-77
2021/05/28 04:23:45;;;;;;;18.17;12.37;;;8.20;99.90;;;;;;4938395;29;20217;-77
2021/05/28 04:26:11;;;;;;;21.97;11.87;;;8.10;99.90;;;;;;4942739;29;20287;-77
2021/05/28 04:28:37;;;;;;;13.77;9.90;;;8.10;99.90;;;;;;4937259;29;20181;-77
2021/05/28 04:31:03;;;;;;;12.00;9.97;;;8.20;99.90;;;;;;4938340;29;20460;-76
2021/05/28 04:33:28;;;;;;;14.43;9.93;;;8.10;99.90;;;;;;4937992;29;20214;-77
2021/05/28 04:35:54;;;;;;;17.33;10.90;;;8.20;99.90;;;;;;4938241;29;20421;-77
2021/05/28 04:38:20;;;;;;;15.80;10.10;;;8.10;99.90;;;;;;4938232;29;20670;-77
2021/05/28 04:40:47;;;;;;;13.50;9.13;;;8.10;99.90;;;;;;4921115;29;20232;-77
2021/05/28 04:43:13;;;;;;;15.55;11.10;;;8.10;99.90;;;;;;4937662;29;20669;-77
2021/05/28 04:45:39;;;;;;;17.23;9.70;;;8.10;99.90;;;;;;4938112;29;20209;-77
2021/05/28 04:48:04;;;;;;;18.40;10.87;;;8.20;99.90;;;;;;4938125;29;20208;-77
2021/05/28 04:50:30;;;;;;;17.80;11.40;;;8.20;99.90;;;;;;4935984;29;20178;-77
2021/05/28 04:53:05;;;;;;;18.43;11.77;;;8.20;99.90;;;;;;4937385;29;20174;-77
2021/05/28 04:55:30;;;;;;;20.25;11.95;;;8.20;99.90;;;;;;4937709;29;20452;-77
2021/05/28 04:57:56;;;;;;;14.80;11.63;;;8.20;99.90;;;;;;4936612;29;20185;-77
2021/05/28 05:00:23;;;;;;;13.60;11.93;;;8.30;99.90;;;;;;4937799;29;20441;-77
2021/05/28 05:02:48;;;;;;;19.65;12.63;;;8.30;99.90;;;;;;4937545;29;20619;-77
2021/05/28 05:05:15;;;;;;;16.37;12.50;;;8.40;99.90;;;;;;4936243;29;20224;-76
2021/05/28 05:07:42;;;;;;;16.13;12.90;;;8.40;99.90;;;;;;4936360;29;20472;-76
2021/05/28 05:10:09;;;;;;;19.63;13.32;;;8.40;99.90;;;;;;4937751;29;20179;-77
2021/05/28 05:12:34;;;;;;;25.65;13.40;;;8.40;99.90;;;;;;4937515;29;20544;-77
2021/05/28 05:15:00;;;;;;;18.20;13.00;;;8.40;99.90;;;;;;4937261;29;20213;-77
2021/05/28 05:17:26;;;;;;;18.43;14.20;;;8.50;99.90;;;;;;4937402;29;20221;-77
2021/05/28 05:19:51;;;;;;;24.80;17.13;;;8.60;99.90;;;;;;4937486;29;20436;-77
2021/05/28 05:22:17;;;;;;;22.27;16.10;;;8.50;99.90;;;;;;4936134;29;20223;-77
2021/05/28 05:24:43;;;;;;;23.73;19.23;;;8.50;99.90;;;;;;4936988;29;20627;-77
2021/05/28 05:27:09;;;;;;;26.20;19.80;;;8.60;99.90;;;;;;4937335;29;20264;-77
2021/05/28 05:29:34;;;;;;;27.87;21.17;;;8.60;99.90;;;;;;4937190;29;20181;-77
2021/05/28 05:32:01;;;;;;;29.20;19.73;;;8.60;99.90;;;;;;4935898;29;20248;-77
2021/05/28 05:34:26;;;;;;;36.28;22.98;;;8.70;99.90;;;;;;4935651;29;20598;-77
2021/05/28 05:36:53;;;;;;;33.67;22.17;;;8.70;99.90;;;;;;4937201;29;20226;-77
2021/05/28 05:39:18;;;;;;;31.65;21.67;;;8.90;99.90;;;;;;4937052;29;20308;-77
2021/05/28 05:41:44;;;;;;;30.60;21.60;;;8.90;99.90;;;;;;4935706;29;20698;-77
2021/05/28 05:44:10;;;;;;;35.37;22.17;;;9.00;99.90;;;;;;4936670;29;20232;-77
2021/05/28 05:46:35;;;;;;;40.30;24.40;;;9.10;99.90;;;;;;4936865;29;20212;-77
2021/05/28 05:49:01;;;;;;;36.13;23.93;;;9.10;99.90;;;;;;4935736;29;20268;-77
2021/05/28 05:51:27;;;;;;;37.23;24.40;;;9.20;99.90;;;;;;4936986;29;20185;-77
2021/05/28 05:53:53;;;;;;;39.20;21.83;;;9.10;99.90;;;;;;4935143;29;20521;-77
2021/05/28 05:56:19;;;;;;;40.70;25.17;;;9.20;99.90;;;;;;4936778;29;20177;-76
2021/05/28 05:58:44;;;;;;;43.28;25.73;;;9.40;99.90;;;;;;4936768;29;20204;-77
2021/05/28 06:01:10;;;;;;;39.07;25.33;;;9.50;99.90;;;;;;4936538;29;20190;-77
2021/05/28 06:03:36;;;;;;;46.60;24.93;;;9.50;99.90;;;;;;4934279;29;20236;-76
2021/05/28 06:06:01;;;;;;;39.00;22.93;;;9.50;99.90;;;;;;4935114;29;20692;-76
2021/05/28 06:08:27;;;;;;;42.50;25.37;;;9.60;99.90;;;;;;4935354;29;20185;-76
2021/05/28 06:10:53;;;;;;;40.60;24.17;;;9.70;99.90;;;;;;4936612;29;20177;-77
2021/05/28 06:13:19;;;;;;;43.03;26.07;;;9.80;99.90;;;;;;4936118;29;20212;-76
2021/05/28 06:15:45;;;;;;;45.83;27.67;;;10.00;99.90;;;;;;4936485;29;20852;-76
2021/05/28 06:18:10;;;;;;;48.53;26.47;;;10.20;99.90;;;;;;4936381;29;20421;-76
2021/05/28 06:20:36;;;;;;;38.27;24.83;;;10.20;99.90;;;;;;4935362;29;20461;-77
2021/05/28 06:23:02;;;;;;;39.80;24.60;;;10.10;99.90;;;;;;4935942;29;20186;-76
2021/05/28 06:25:28;;;;;;;37.60;24.37;;;10.10;99.90;;;;;;4936383;29;20432;-77
2021/05/28 06:27:54;;;;;;;38.42;23.13;;;10.00;99.90;;;;;;4936188;29;20205;-76
2021/05/28 06:30:19;;;;;;;38.63;23.97;;;10.10;99.90;;;;;;4936206;29;20184;-77
2021/05/28 06:32:45;;;;;;;34.63;22.67;;;10.20;99.90;;;;;;4934702;29;20597;-77
2021/05/28 06:35:11;;;;;;;38.40;23.13;;;10.40;99.90;;;;;;4934949;29;20702;-77
2021/05/28 06:37:39;;;;;;;39.73;23.50;;;10.50;99.90;;;;;;4936162;29;20639;-76
2021/05/28 06:40:06;;;;;;;37.13;21.52;;;10.50;99.90;;;;;;4936039;29;20433;-76
2021/05/28 06:42:34;;;;;;;33.75;21.80;;;10.50;99.90;;;;;;4935800;29;20185;-75
2021/05/28 06:44:59;;;;;;;39.38;20.83;;;10.50;99.90;;;;;;4935934;29;20629;-78
2021/05/28 06:47:25;;;;;;;45.43;22.70;;;10.60;99.90;;;;;;4935915;29;20300;-78
2021/05/28 06:49:52;;;;;;;37.53;21.00;;;10.70;99.90;;;;;;4936142;29;20256;-76
2021/05/28 06:52:18;;;;;;;35.92;20.55;;;10.80;99.90;;;;;;4936008;29;20417;-77
2021/05/28 06:54:44;;;;;;;30.55;21.30;;;10.80;99.90;;;;;;4934360;29;20253;-76
2021/05/28 06:57:10;;;;;;;28.27;18.58;;;10.90;99.90;;;;;;4935998;29;20200;-76
2021/05/28 06:59:35;;;;;;;31.53;19.10;;;10.90;99.90;;;;;;4936001;29;20197;-77
2021/05/28 07:02:01;;;;;;;29.80;18.90;;;11.00;99.90;;;;;;4935838;29;20192;-77
2021/05/28 07:04:27;;;;;;;32.17;16.90;;;11.10;99.90;;;;;;4934980;29;20220;-77
2021/05/28 07:06:52;;;;;;;25.90;17.33;;;11.30;99.90;;;;;;4935504;29;20209;-79
2021/05/28 07:09:18;;;;;;;27.53;16.60;;;11.20;99.90;;;;;;4935614;29;20651;-77
2021/05/28 07:11:44;;;;;;;28.70;16.50;;;11.30;99.90;;;;;;4935058;29;20551;-78
2021/05/28 07:14:09;;;;;;;28.50;17.60;;;11.20;99.90;;;;;;4937513;29;20221;-78
2021/05/28 07:16:36;;;;;;;26.30;17.77;;;11.10;99.90;;;;;;4939748;29;20181;-78
2021/05/28 07:19:04;;;;;;;25.75;16.15;;;11.10;99.90;;;;;;4939951;29;20444;-78
2021/05/28 07:21:29;;;;;;;25.15;17.38;;;11.20;99.90;;;;;;4938380;29;20197;-77
2021/05/28 07:23:55;;;;;;;27.00;16.90;;;11.30;99.90;;;;;;4939322;29;20201;-78
2021/05/28 07:26:20;;;;;;;23.50;15.50;;;11.40;99.90;;;;;;4938280;29;20231;-78
2021/05/28 07:28:46;;;;;;;29.13;16.47;;;11.60;99.90;;;;;;4939335;29;20178;-77
2021/05/28 07:31:12;;;;;;;24.87;17.17;;;11.80;99.90;;;;;;4939627;29;20192;-79
2021/05/28 07:33:39;;;;;;;24.60;15.80;;;11.90;99.90;;;;;;4938855;29;20193;-78
2021/05/28 07:36:07;;;;;;;17.70;14.03;;;12.10;99.90;;;;;;4939173;29;20835;-78
2021/05/28 07:38:33;;;;;;;22.87;14.30;;;12.20;99.90;;;;;;4937680;29;20450;-78
2021/05/28 07:40:59;;;;;;;20.63;12.87;;;12.10;99.90;;;;;;4939109;29;20421;-78
2021/05/28 07:43:25;;;;;;;17.30;12.70;;;12.30;99.90;;;;;;4938558;29;20452;-78
2021/05/28 07:45:51;;;;;;;16.93;12.00;;;12.50;99.90;;;;;;4939092;29;20425;-79
2021/05/28 07:48:21;;;;;;;16.27;11.77;;;12.50;99.90;;;;;;4937667;29;20276;-78
2021/05/28 07:50:48;;;;;;;14.07;11.20;;;12.90;99.90;;;;;;4939081;29;20756;-78
2021/05/28 07:53:21;;;;;;;15.47;10.50;;;13.10;99.90;;;;;;4938571;29;20460;-77
2021/05/28 07:55:47;;;;;;;17.47;11.10;;;12.80;99.90;;;;;;4939035;29;20397;-78
2021/05/28 07:58:13;;;;;;;14.50;10.50;;;12.80;99.90;;;;;;4937796;29;20911;-76
2021/05/28 08:00:39;;;;;;;13.90;9.67;;;12.90;99.90;;;;;;4938764;29;20178;-75
2021/05/28 08:03:04;;;;;;;12.57;9.57;;;13.30;99.90;;;;;;4938266;29;20516;-75
2021/05/28 08:05:30;;;;;;;17.03;10.50;;;13.70;99.90;;;;;;4938653;29;20293;-75
2021/05/28 08:07:56;;;;;;;15.63;10.70;;;14.00;99.90;;;;;;4938668;29;20206;-74
2021/05/28 08:10:23;;;;;;;17.60;12.53;;;13.70;99.90;;;;;;4938714;29;20417;-74
2021/05/28 08:12:50;;;;;;;20.10;10.50;;;14.00;99.90;;;;;;4937118;29;20807;-74
2021/05/28 08:15:17;;;;;;;14.97;9.83;;;14.20;99.90;;;;;;4938482;29;20810;-76
2021/05/28 08:17:43;;;;;;;14.67;11.73;;;14.10;99.90;;;;;;4937813;29;20421;-75
2021/05/28 08:20:10;;;;;;;17.20;11.93;;;13.90;99.90;;;;;;4937279;29;20520;-74
2021/05/28 08:22:36;;;;;;;18.00;12.20;;;13.70;99.90;;;;;;4937439;29;20744;-76
2021/05/28 08:25:03;;;;;;;16.53;11.80;;;13.60;99.90;;;;;;4936059;29;20536;-75
2021/05/28 08:27:29;;;;;;;17.77;12.13;;;13.70;99.90;;;;;;4938473;29;20467;-79
2021/05/28 08:29:54;;;;;;;14.33;11.03;;;13.50;99.90;;;;;;4937907;29;20425;-78
2021/05/28 08:32:20;;;;;;;15.83;12.23;;;13.60;99.90;;;;;;4936930;29;20264;-79
2021/05/28 08:34:46;;;;;;;16.87;12.33;;;13.70;99.90;;;;;;4937402;29;20228;-77
2021/05/28 08:37:11;;;;;;;15.70;10.80;;;14.00;99.90;;;;;;4938052;29;20666;-77
2021/05/28 08:39:37;;;;;;;17.60;11.43;;;13.90;99.90;;;;;;4936818;29;20188;-79
2021/05/28 08:42:04;;;;;;;15.23;10.33;;;13.90;99.90;;;;;;4938130;29;20685;-77
2021/05/28 08:44:32;;;;;;;13.50;10.87;;;13.90;99.90;;;;;;4936439;29;20231;-79
2021/05/28 08:46:58;;;;;;;12.03;10.47;;;14.30;99.90;;;;;;4936754;29;20560;-78
2021/05/28 08:49:24;;;;;;;14.63;10.40;;;14.70;99.90;;;;;;4937840;29;20418;-77
2021/05/28 08:51:50;;;;;;;12.50;10.70;;;14.70;99.90;;;;;;4937970;29;20417;-77
2021/05/28 08:54:17;;;;;;;14.03;9.80;;;14.60;99.90;;;;;;4937463;29;20433;-80
2021/05/28 08:56:46;;;;;;;11.07;8.73;;;14.60;99.90;;;;;;4937829;29;20177;-79
2021/05/28 08:59:12;;;;;;;10.30;8.60;;;14.60;99.90;;;;;;4937751;29;21001;-77
2021/05/28 09:01:38;;;;;;;12.40;8.80;;;14.80;99.90;;;;;;4937673;29;20438;-77
2021/05/28 09:04:05;;;;;;;11.13;7.90;;;14.70;99.90;;;;;;4935891;29;20990;-77
2021/05/28 09:06:39;;;;;;;11.63;7.40;;;14.90;99.90;;;;;;4937564;29;20504;-79
2021/05/28 09:09:24;;;;;;;11.40;7.10;;;15.60;99.90;;;;;;4937491;29;20488;-77
2021/05/28 09:11:55;;;;;;;9.83;6.30;;;16.30;99.90;;;;;;4952528;29;20413;-78
2021/05/28 09:14:40;;;;;;;7.50;6.23;;;16.60;99.90;;;;;;4938925;29;20404;-77
2021/05/28 09:17:11;;;;;;;8.27;6.60;;;16.40;99.90;;;;;;4937728;29;20793;-77
2021/05/28 09:19:38;;;;;;;9.73;6.97;;;17.20;99.90;;;;;;4936257;29;20433;-77
2021/05/28 09:22:05;;;;;;;7.13;5.80;;;17.00;99.90;;;;;;4937458;29;20445;-75
2021/05/28 09:24:32;;;;;;;8.27;7.33;;;16.30;99.90;;;;;;4937044;29;20423;-75
2021/05/28 09:27:28;;;;;;;8.80;6.90;;;15.70;99.90;;;;;;4937223;29;20512;-76
2021/05/28 09:30:11;;;;;;;9.03;6.20;;;15.60;99.90;;;;;;4935949;29;20468;-76
2021/05/28 09:32:43;;;;;;;9.20;6.60;;;16.10;99.90;;;;;;4937147;29;20885;-77
2021/05/28 09:35:11;;;;;;;7.47;6.17;;;16.20;99.90;;;;;;4937318;29;20455;-75
2021/05/28 09:37:48;;;;;;;8.57;5.50;;;16.00;99.90;;;;;;4937031;29;20413;-77
2021/05/28 09:40:23;;;;;;;7.90;5.70;;;15.80;99.90;;;;;;4937324;29;20405;-76
2021/05/28 09:42:50;;;;;;;7.40;4.87;;;16.00;99.90;;;;;;4936699;29;20443;-76
2021/05/28 09:45:40;;;;;;;9.57;5.37;;;16.20;99.90;;;;;;4936878;29;20411;-77
2021/05/28 09:48:15;;;;;;;6.70;5.00;;;17.00;99.90;;;;;;4937022;29;20806;-76
2021/05/28 09:50:53;;;;;;;6.90;4.30;;;18.20;99.90;;;;;;4937071;29;20417;-76
2021/05/28 09:53:44;;;;;;;5.70;4.67;;;18.10;99.90;;;;;;4936546;29;20556;-76
2021/05/28 09:56:31;;;;;;;6.60;4.80;;;18.40;99.90;;;;;;4934174;29;20516;-76
2021/05/28 09:59:01;;;;;;;7.80;4.73;;;18.50;99.90;;;;;;4936838;29;20395;-75
2021/05/28 10:01:27;;;;;;;4.57;4.07;;;19.40;99.90;;;;;;4936821;29;20558;-75
2021/05/28 10:04:06;;;;;;;6.03;5.40;;;19.30;99.90;;;;;;4935946;29;20518;-76
2021/05/28 10:06:35;;;;;;;6.13;5.07;;;18.90;99.90;;;;;;4936500;29;21016;-74
2021/05/28 10:09:04;;;;;;;7.47;4.87;;;18.70;99.90;;;;;;4936559;29;20409;-75
2021/05/28 10:11:31;;;;;;;6.47;5.30;;;18.40;99.90;;;;;;4936435;29;20413;-76
2021/05/28 10:13:57;;;;;;;7.00;4.70;;;19.10;99.90;;;;;;4935783;29;20532;-78
2021/05/28 10:16:24;;;;;;;9.33;4.50;;;18.50;99.90;;;;;;4935885;29;20456;-77
2021/05/28 10:18:50;;;;;;;4.70;4.23;;;18.60;99.90;;;;;;4935825;29;20432;-77
2021/05/28 10:21:16;;;;;;;7.43;4.77;;;18.90;99.90;;;;;;4935931;29;20495;-77
2021/05/28 10:23:43;;;;;;;5.57;3.97;;;18.30;99.90;;;;;;4935732;29;20597;-76
2021/05/28 10:26:09;;;;;;;5.73;4.30;;;18.70;99.90;;;;;;4951080;29;20541;-77
2021/05/28 10:28:36;;;;;;;9.83;4.90;;;18.70;99.90;;;;;;4934962;29;20399;-78
2021/05/28 10:31:03;;;;;;;6.07;4.47;;;18.70;99.90;;;;;;4935920;29;20396;-77
2021/05/28 10:33:30;;;;;;;7.20;4.67;;;18.80;99.90;;;;;;4935691;29;20471;-77
2021/05/28 10:36:02;;;;;;;5.83;4.27;;;19.20;99.90;;;;;;4936047;29;20461;-78
2021/05/28 10:38:33;;;;;;;9.10;5.60;;;18.70;99.90;;;;;;4936061;29;20399;-77
2021/05/28 10:41:05;;;;;;;6.57;5.47;;;18.70;99.90;;;;;;4935964;29;20444;-78
2021/05/28 10:43:36;;;;;;;8.90;5.77;;;18.30;99.90;;;;;;4934201;29;20433;-77
2021/05/28 10:46:09;;;;;;;6.03;5.10;;;18.60;99.90;;;;;;4935910;29;20413;-76
2021/05/28 10:48:40;;;;;;;4.60;4.03;;;19.60;99.90;;;;;;4935300;29;20826;-77
2021/05/28 10:51:14;;;;;;;6.97;5.33;;;20.00;99.90;;;;;;4936124;29;20420;-78
2021/05/28 10:53:52;;;;;;;9.63;4.77;;;20.90;99.90;;;;;;4935384;29;20470;-78
2021/05/28 10:56:23;;;;;;;5.70;4.70;;;20.20;99.90;;;;;;4934601;29;20402;-77
2021/05/28 10:58:53;;;;;;;7.00;4.90;;;18.90;99.90;;;;;;4935929;29;20578;-77
2021/05/28 11:01:48;;;;;;;4.90;4.40;;;18.90;99.90;;;;;;4935848;29;20392;-77
2021/05/28 11:04:21;;;;;;;4.93;4.27;;;19.30;99.90;;;;;;4935225;29;20576;-77
2021/05/28 11:06:59;;;;;;;6.57;4.30;;;19.60;99.90;;;;;;4935781;29;20463;-77
2021/05/28 11:09:38;;;;;;;6.63;5.10;;;19.90;99.90;;;;;;4935797;29;20417;-78
2021/05/28 11:12:08;;;;;;;8.00;4.60;;;20.70;99.90;;;;;;4935735;29;20417;-78
2021/05/28 11:14:36;;;;;;;6.97;4.60;;;20.50;99.90;;;;;;4934039;29;20415;-77
2021/05/28 11:17:02;;;;;;;8.40;4.90;;;20.50;99.90;;;;;;4934677;29;20392;-78
2021/05/28 11:19:30;;;;;;;6.50;4.57;;;19.70;99.90;;;;;;4935926;29;20426;-77
2021/05/28 11:21:56;;;;;;;4.93;4.40;;;20.30;99.90;;;;;;4936003;29;20177;-76
2021/05/28 11:24:40;;;;;;;4.70;4.13;;;20.20;99.90;;;;;;4935148;29;20524;-78
2021/05/28 11:27:16;;;;;;;14.43;4.00;;;20.50;99.90;;;;;;4935791;29;20511;-78
2021/05/28 11:29:42;;;;;;;5.43;4.40;;;20.40;99.90;;;;;;4935429;29;20761;-78
2021/05/28 11:32:38;;;;;;;6.60;3.53;;;19.50;99.90;;;;;;4935589;29;20420;-78
2021/05/28 11:35:16;;;;;;;5.13;4.63;;;18.90;99.90;;;;;;4929542;29;20475;-78
2021/05/28 11:37:54;;;;;;;8.90;4.83;;;19.60;99.90;;;;;;4935587;29;20388;-77
2021/05/28 11:40:30;;;;;;;6.43;5.20;;;19.80;99.90;;;;;;4935836;29;20599;-77
2021/05/28 11:43:13;;;;;;;4.77;4.33;;;18.90;99.90;;;;;;4934993;29;20403;-78
2021/05/28 11:45:42;;;;;;;4.27;3.90;;;18.90;99.90;;;;;;4916582;29;20404;-77
2021/05/28 11:48:16;;;;;;;6.60;4.17;;;19.00;99.90;;;;;;4916665;29;20899;-77
2021/05/28 11:50:47;;;;;;;4.60;3.57;;;19.40;99.90;;;;;;4916428;29;20410;-77
2021/05/28 11:53:13;;;;;;;4.60;3.67;;;19.60;99.90;;;;;;4916238;29;20409;-78
2021/05/28 11:55:50;;;;;;;4.40;3.97;;;19.80;99.90;;;;;;4916455;29;20878;-78
2021/05/28 11:58:18;;;;;;;6.63;3.50;;;20.20;99.90;;;;;;4916590;29;20182;-76
2021/05/28 12:00:45;;;;;;;4.20;3.70;;;21.00;99.90;;;;;;4918906;29;20699;-77
2021/05/28 12:03:11;;;;;;;3.90;3.50;;;21.90;99.90;;;;;;4934081;29;20520;-78
2021/05/28 12:05:39;;;;;;;4.30;3.53;;;22.60;99.90;;;;;;4919581;29;20477;-76
2021/05/28 12:08:11;;;;;;;6.80;5.17;;;23.40;99.90;;;;;;4919805;29;20474;-77
2021/05/28 12:10:42;;;;;;;5.07;4.50;;;22.90;99.90;;;;;;4918339;29;20404;-78
2021/05/28 12:13:15;;;;;;;5.67;4.77;;;22.70;99.90;;;;;;4919043;29;20414;-75
2021/05/28 12:15:52;;;;;;;5.80;4.57;;;23.00;99.90;;;;;;4919320;29;20494;-77
2021/05/28 12:18:18;;;;;;;5.30;4.80;;;23.50;99.90;;;;;;4919609;29;20410;-77
2021/05/28 12:20:46;;;;;;;7.63;4.07;;;23.20;99.90;;;;;;4918339;29;20436;-76
2021/05/28 12:23:17;;;;;;;6.80;5.47;;;22.80;99.90;;;;;;4918923;29;20201;-75
2021/05/28 12:26:07;;;;;;;7.47;5.03;;;22.70;99.90;;;;;;4918074;29;20422;-76
2021/05/28 12:28:38;;;;;;;7.33;5.63;;;21.60;99.90;;;;;;4919264;29;20418;-75
2021/05/28 12:31:21;;;;;;;7.17;6.00;;;21.10;99.90;;;;;;4919024;29;20425;-75
2021/05/28 12:34:16;;;;;;;7.63;6.00;;;21.20;99.90;;;;;;4919014;29;20453;-76
2021/05/28 12:36:47;;;;;;;9.60;5.43;;;21.20;99.90;;;;;;4906106;29;20430;-76
2021/05/28 12:39:14;;;;;;;9.70;5.57;;;20.80;99.90;;;;;;4919134;29;20388;-77
2021/05/28 12:41:42;;;;;;;6.63;4.67;;;21.50;99.90;;;;;;4919330;29;20417;-78